Time;durP1;ratioP1;P1;durP2;ratioP2;P2;SDS_P1;SDS_P2;PMS_P1;PMS_P2;Temp;Humidity;BMP_temperature;BMP_pressure;BME280_temperature;BME280_humidity;BME280_pressure;Samples;Min_cycle;Max_cycle;Signal;HPM_P1;HPM_P2
2021/01/14 00:02:18;;;;;;;44.35;24.23;;;38.70;2201.60;;;;;;6096088;23;20006;-65
2021/01/14 00:04:43;;;;;;;46.33;23.40;;;38.70;2201.60;;;;;;6097227;23;20073;-66
2021/01/14 00:07:09;;;;;;;46.30;24.77;;;38.70;2201.60;;;;;;6097646;23;20006;-66
2021/01/14 00:09:35;;;;;;;54.90;23.38;;;38.90;2201.60;;;;;;6097290;23;19999;-65
2021/01/14 00:12:01;;;;;;;44.97;21.98;;;38.80;2201.60;;;;;;6096664;23;20021;-66
2021/01/14 00:14:27;;;;;;;42.35;21.38;;;38.90;2201.60;;;;;;6096903;23;20006;-67
2021/01/14 00:16:52;;;;;;;40.88;21.08;;;38.70;2201.60;;;;;;6096680;23;20089;-66
2021/01/14 00:19:18;;;;;;;47.08;19.67;;;38.80;2201.60;;;;;;6097558;23;20001;-64
2021/01/14 00:21:44;;;;;;;40.97;18.30;;;38.70;2201.60;;;;;;6097275;23;20005;-66
2021/01/14 00:24:10;;;;;;;49.38;20.30;;;38.70;2201.60;;;;;;6096962;23;20053;-65
2021/01/14 00:26:36;;;;;;;35.38;18.77;;;38.80;2201.60;;;;;;6097263;23;20002;-64
2021/01/14 00:29:05;;;;;;;39.97;20.02;;;38.70;2201.60;;;;;;6096189;23;20409;-67
2021/01/14 00:31:31;;;;;;;35.17;17.58;;;38.60;2201.60;;;;;;6097347;23;20002;-66
2021/01/14 00:33:57;;;;;;;41.53;19.90;;;38.70;2201.60;;;;;;6097327;23;20078;-67
2021/01/14 00:39:26;;;;;;;32.47;15.35;;;38.70;2201.60;;;;;;6096299;23;20009;-66
2021/01/14 00:41:52;;;;;;;37.63;15.07;;;38.80;2201.60;;;;;;6096220;23;20049;-66
2021/01/14 00:44:18;;;;;;;29.45;14.98;;;38.70;2201.60;;;;;;6097268;23;20073;-65
2021/01/14 00:46:44;;;;;;;30.85;15.65;;;38.70;2201.60;;;;;;6097275;23;20044;-65
2021/01/14 00:49:10;;;;;;;31.65;14.30;;;38.80;2201.60;;;;;;6096080;23;19999;-67
2021/01/14 00:51:37;;;;;;;27.05;13.68;;;38.80;2201.60;;;;;;6096624;23;19998;-68
2021/01/14 00:54:04;;;;;;;28.75;13.68;;;38.90;2201.60;;;;;;6096195;23;20124;-66
2021/01/14 00:56:38;;;;;;;29.95;14.07;;;38.90;2201.60;;;;;;6096675;23;20038;-65
2021/01/14 00:59:04;;;;;;;29.27;14.63;;;38.90;2201.60;;;;;;6096944;23;19994;-66
2021/01/14 01:01:31;;;;;;;29.02;13.70;;;38.80;2201.60;;;;;;6096895;23;19995;-67
2021/01/14 01:03:58;;;;;;;27.10;15.02;;;38.90;2201.60;;;;;;6096112;23;19998;-66
2021/01/14 01:06:31;;;;;;;28.92;13.10;;;38.90;2201.60;;;;;;6096752;23;20450;-68
2021/01/14 01:08:57;;;;;;;29.77;14.30;;;38.90;2201.60;;;;;;6096755;23;20038;-66
2021/01/14 01:11:24;;;;;;;33.10;13.60;;;38.90;2201.60;;;;;;6096336;23;20298;-66
2021/01/14 01:13:50;;;;;;;32.30;13.95;;;39.00;2201.60;;;;;;6097367;23;20029;-66
2021/01/14 01:16:16;;;;;;;28.77;13.57;;;38.80;2201.60;;;;;;6098109;23;20003;-64
2021/01/14 01:18:42;;;;;;;25.70;14.18;;;38.70;2201.60;;;;;;6099706;23;20084;-67
2021/01/14 01:21:09;;;;;;;31.38;15.13;;;38.90;2201.60;;;;;;6099745;23;20001;-65
2021/01/14 01:23:35;;;;;;;30.08;13.90;;;38.90;2201.60;;;;;;6099392;23;19990;-66
2021/01/14 01:26:01;;;;;;;30.55;14.75;;;39.00;2201.60;;;;;;6099722;23;20018;-65
2021/01/14 01:28:27;;;;;;;32.72;14.70;;;39.00;2201.60;;;;;;6099655;23;20073;-66
2021/01/14 01:30:53;;;;;;;29.77;14.55;;;39.00;2201.60;;;;;;6098890;23;19998;-65
2021/01/14 01:33:18;;;;;;;34.33;15.57;;;39.10;2201.60;;;;;;6099306;23;20069;-66
2021/01/14 01:35:50;;;;;;;35.53;16.33;;;39.10;2201.60;;;;;;6099488;23;19994;-67
2021/01/14 01:38:17;;;;;;;39.05;17.10;;;39.10;2201.60;;;;;;6098953;23;20018;-66
2021/01/14 01:40:43;;;;;;;31.70;15.50;;;39.00;2201.60;;;;;;6099569;23;20404;-66
2021/01/14 01:43:09;;;;;;;30.42;16.80;;;39.10;2201.60;;;;;;6099298;23;19995;-65
2021/01/14 01:45:35;;;;;;;35.28;16.08;;;39.00;2201.60;;;;;;6098210;23;20416;-66
2021/01/14 01:48:01;;;;;;;33.20;16.77;;;39.00;2201.60;;;;;;6098890;23;20022;-66
2021/01/14 01:50:27;;;;;;;31.08;16.02;;;39.00;2201.60;;;;;;6099218;23;19990;-66
2021/01/14 01:52:55;;;;;;;32.40;16.85;;;38.90;2201.60;;;;;;6098849;23;19995;-65
2021/01/14 01:55:22;;;;;;;28.30;13.73;;;38.90;2201.60;;;;;;6098510;23;20002;-66
2021/01/14 01:57:48;;;;;;;28.70;13.02;;;38.60;2201.60;;;;;;6099417;23;20003;-64
2021/01/14 02:00:14;;;;;;;32.40;13.52;;;38.50;2201.60;;;;;;6098770;23;19995;-66
2021/01/14 02:02:40;;;;;;;34.35;14.95;;;38.50;2201.60;;;;;;6099332;23;19994;-64
2021/01/14 02:05:07;;;;;;;32.25;14.73;;;38.50;2201.60;;;;;;6099085;23;20398;-67
2021/01/14 02:07:36;;;;;;;43.88;19.40;;;38.40;2201.60;;;;;;6098895;23;19999;-66
2021/01/14 02:10:13;;;;;;;34.35;16.98;;;38.40;2201.60;;;;;;6099357;23;19998;-72
2021/01/14 02:12:54;;;;;;;33.95;15.23;;;38.40;2201.60;;;;;;6098507;23;20062;-65
2021/01/14 02:15:22;;;;;;;32.38;14.93;;;13.70;2201.60;;;;;;6098667;23;19994;-67
2021/01/14 02:17:52;;;;;;;28.13;12.85;;;13.70;2201.60;;;;;;6099349;23;20009;-66
2021/01/14 02:20:21;;;;;;;27.25;13.70;;;38.40;2201.60;;;;;;6098553;23;19995;-67
2021/01/14 02:23:09;;;;;;;27.60;13.63;;;38.60;2201.60;;;;;;6098789;23;20002;-67
2021/01/14 02:26:02;;;;;;;25.23;13.35;;;38.60;2201.60;;;;;;6098959;23;20010;-64
2021/01/14 02:28:28;;;;;;;27.55;14.43;;;38.60;2201.60;;;;;;6098650;23;20271;-64
2021/01/14 02:30:55;;;;;;;27.00;13.70;;;38.40;2201.60;;;;;;6098997;23;20002;-66
2021/01/14 02:33:21;;;;;;;25.88;13.23;;;38.40;2201.60;;;;;;6098696;23;20061;-65
2021/01/14 02:35:46;;;;;;;29.45;15.18;;;38.60;2201.60;;;;;;6099213;23;20343;-65
2021/01/14 02:38:12;;;;;;;31.65;16.35;;;38.80;2201.60;;;;;;6098565;23;20002;-65
2021/01/14 02:40:38;;;;;;;29.38;15.00;;;38.90;2201.60;;;;;;6098277;23;19994;-67
2021/01/14 02:43:04;;;;;;;30.75;12.82;;;38.90;2201.60;;;;;;6098572;23;19994;-65
2021/01/14 02:45:30;;;;;;;25.70;13.77;;;39.20;2201.60;;;;;;6099285;23;20042;-64
2021/01/14 02:47:56;;;;;;;26.67;12.90;;;39.20;2201.60;;;;;;6098647;23;20026;-65
2021/01/14 02:50:23;;;;;;;31.33;14.07;;;64.10;2201.60;;;;;;6097629;23;20069;-64
2021/01/14 02:52:50;;;;;;;26.73;12.75;;;64.10;2201.60;;;;;;6097031;23;19995;-67
2021/01/14 02:55:17;;;;;;;24.20;13.05;;;64.00;2201.60;;;;;;6096356;23;20022;-65
2021/01/14 02:57:45;;;;;;;26.15;14.05;;;64.00;2201.60;;;;;;6096587;23;20305;-65
2021/01/14 03:00:12;;;;;;;28.45;13.80;;;64.00;2201.60;;;;;;6096645;23;20008;-65
2021/01/14 03:02:37;;;;;;;28.35;13.27;;;64.10;2201.60;;;;;;6095834;23;19998;-65
2021/01/14 03:05:04;;;;;;;25.70;13.00;;;64.20;2201.60;;;;;;6097533;23;20314;-65
2021/01/14 03:07:29;;;;;;;27.65;11.98;;;64.10;2201.60;;;;;;6099544;23;20065;-66
2021/01/14 03:09:55;;;;;;;24.77;12.70;;;64.20;2201.60;;;;;;6098484;23;20399;-66
2021/01/14 03:12:21;;;;;;;21.98;11.30;;;64.10;2201.60;;;;;;6098853;23;20082;-66
2021/01/14 03:14:46;;;;;;;23.83;12.50;;;39.30;2201.60;;;;;;6098452;23;19994;-65
2021/01/14 03:17:12;;;;;;;28.42;12.75;;;64.10;2201.60;;;;;;6099110;23;20009;-66
2021/01/14 03:19:38;;;;;;;24.67;11.05;;;64.00;2201.60;;;;;;6098775;23;19994;-65
2021/01/14 03:22:04;;;;;;;23.98;11.27;;;39.30;2201.60;;;;;;6099209;23;19995;-66
2021/01/14 03:24:29;;;;;;;23.00;11.98;;;39.20;2201.60;;;;;;6097923;23;20418;-68
2021/01/14 03:26:55;;;;;;;24.65;11.27;;;39.10;2201.60;;;;;;6098459;23;20406;-66
2021/01/14 03:29:21;;;;;;;23.08;11.27;;;39.20;2201.60;;;;;;6098106;23;19994;-64
2021/01/14 03:31:47;;;;;;;24.17;12.20;;;39.00;2201.60;;;;;;6098959;23;19991;-66
2021/01/14 03:34:12;;;;;;;26.65;12.15;;;39.20;2201.60;;;;;;6100434;23;19994;-66
2021/01/14 03:36:56;;;;;;;26.27;12.18;;;39.20;2201.60;;;;;;6100357;23;20352;-67
2021/01/14 03:39:29;;;;;;;24.40;12.30;;;39.30;2201.60;;;;;;6100430;23;20314;-66
2021/01/14 03:41:56;;;;;;;19.52;10.13;;;39.20;2201.60;;;;;;6100830;23;20001;-65
2021/01/14 03:44:22;;;;;;;20.77;10.25;;;39.30;2201.60;;;;;;6100419;23;20402;-66
2021/01/14 03:46:49;;;;;;;19.80;10.27;;;39.30;2201.60;;;;;;6100392;23;20005;-64
2021/01/14 03:49:15;;;;;;;24.33;10.77;;;64.00;2201.60;;;;;;6100322;23;20001;-65
2021/01/14 03:51:46;;;;;;;23.65;10.80;;;39.30;2201.60;;;;;;6100326;23;20077;-66
2021/01/14 03:54:12;;;;;;;23.15;10.95;;;64.20;2201.60;;;;;;6100721;23;19994;-66
2021/01/14 03:56:39;;;;;;;20.42;10.15;;;64.10;2201.60;;;;;;6100505;23;20005;-64
2021/01/14 03:59:05;;;;;;;19.88;9.32;;;64.00;2201.60;;;;;;6099658;23;20353;-64
2021/01/14 04:01:34;;;;;;;18.40;9.68;;;64.00;2201.60;;;;;;6099733;23;20049;-66
2021/01/14 04:04:00;;;;;;;23.55;10.52;;;64.20;2201.60;;;;;;6100506;23;20037;-64
2021/01/14 04:06:34;;;;;;;23.17;10.27;;;64.30;2201.60;;;;;;6099736;23;20002;-66
2021/01/14 04:09:01;;;;;;;21.88;11.07;;;64.30;2201.60;;;;;;6100130;23;19995;-67
2021/01/14 04:11:27;;;;;;;20.02;10.40;;;64.30;2201.60;;;;;;6099598;23;20002;-65
2021/01/14 04:13:53;;;;;;;22.67;10.90;;;64.50;2201.60;;;;;;6100113;23;20053;-67
2021/01/14 04:16:19;;;;;;;24.75;11.18;;;64.50;2201.60;;;;;;6100314;23;20102;-67
2021/01/14 04:18:45;;;;;;;24.48;11.68;;;64.40;2201.60;;;;;;6099685;23;20352;-65
2021/01/14 04:21:14;;;;;;;20.73;10.23;;;64.50;2201.60;;;;;;6100021;23;19998;-68
2021/01/14 04:23:40;;;;;;;22.40;11.15;;;64.50;2201.60;;;;;;6099555;23;20130;-66
2021/01/14 04:26:06;;;;;;;20.30;10.68;;;64.60;2201.60;;;;;;6100123;23;20015;-66
2021/01/14 04:28:31;;;;;;;23.08;11.73;;;64.50;2201.60;;;;;;6099279;23;20084;-66
2021/01/14 04:30:57;;;;;;;25.17;10.55;;;64.50;2201.60;;;;;;6100143;23;19995;-64
2021/01/14 04:33:23;;;;;;;22.55;10.95;;;64.60;2201.60;;;;;;6099408;23;20414;-64
2021/01/14 04:35:55;;;;;;;21.63;10.63;;;64.60;2201.60;;;;;;6100094;23;19990;-66
2021/01/14 04:38:22;;;;;;;21.20;10.05;;;64.60;2201.60;;;;;;6100225;23;20001;-65
2021/01/14 04:41:04;;;;;;;21.33;11.55;;;64.60;2201.60;;;;;;6099941;23;20050;-66
2021/01/14 04:43:33;;;;;;;24.52;10.40;;;64.80;2201.60;;;;;;6099777;23;19991;-64
2021/01/14 04:46:06;;;;;;;25.50;10.07;;;64.60;2201.60;;;;;;6099316;23;19998;-65
2021/01/14 04:48:38;;;;;;;16.98;8.98;;;64.60;2201.60;;;;;;6099773;23;20002;-64
2021/01/14 04:51:16;;;;;;;20.08;10.38;;;64.80;2201.60;;;;;;6099358;23;19998;-66
2021/01/14 04:53:46;;;;;;;19.95;9.85;;;64.80;2201.60;;;;;;6099416;23;20363;-65
2021/01/14 04:56:13;;;;;;;32.78;11.15;;;64.70;2201.60;;;;;;6099591;23;20390;-66
2021/01/14 04:58:49;;;;;;;21.25;10.57;;;64.60;2201.60;;;;;;6099770;23;20470;-67
2021/01/14 05:01:25;;;;;;;24.73;9.57;;;64.60;2201.60;;;;;;6099160;23;19994;-66
2021/01/14 05:03:54;;;;;;;22.30;9.77;;;64.80;2201.60;;;;;;6099440;23;19998;-65
2021/01/14 05:06:20;;;;;;;;;;;64.70;2201.60;;;;;;6100338;23;19999;-64
2021/01/14 05:08:47;;;;;;;19.63;9.07;;;64.60;2201.60;;;;;;6099049;23;19902;-66
2021/01/14 05:11:15;;;;;;;18.45;8.75;;;64.70;2201.60;;;;;;6099085;23;20286;-64
2021/01/14 05:13:41;;;;;;;20.05;10.50;;;64.80;2201.60;;;;;;6099484;23;19998;-66
2021/01/14 05:16:07;;;;;;;20.38;10.05;;;64.80;2201.60;;;;;;6098948;23;20042;-66
2021/01/14 05:18:36;;;;;;;15.30;8.02;;;64.70;2201.60;;;;;;6099778;23;19994;-68
2021/01/14 05:21:02;;;;;;;21.30;11.25;;;64.70;2201.60;;;;;;6098730;23;20425;-65
2021/01/14 05:23:31;;;;;;;35.67;23.63;;;64.60;2201.60;;;;;;6098720;23;19990;-66
2021/01/14 05:25:57;;;;;;;30.33;16.67;;;64.50;2201.60;;;;;;6099359;23;20022;-67
2021/01/14 05:28:24;;;;;;;22.38;13.52;;;64.30;2201.60;;;;;;6098702;23;20521;-66
2021/01/14 05:30:52;;;;;;;20.15;14.93;;;64.30;2201.60;;;;;;6098879;23;19994;-64
2021/01/14 05:33:23;;;;;;;51.92;37.17;;;64.10;2201.60;;;;;;6099297;23;19995;-66
2021/01/14 05:35:51;;;;;;;35.17;22.73;;;64.00;2201.60;;;;;;6099178;23;19991;-66
2021/01/14 05:38:21;;;;;;;20.38;10.98;;;39.30;2201.60;;;;;;6099421;23;20028;-65
2021/01/14 05:41:10;;;;;;;18.63;10.88;;;39.30;2201.60;;;;;;6099626;23;20077;-66
2021/01/14 05:43:59;;;;;;;15.07;8.40;;;39.10;2201.60;;;;;;6098885;23;20004;-66
2021/01/14 05:46:27;;;;;;;11.45;5.50;;;39.20;2201.60;;;;;;6099118;23;19998;-64
2021/01/14 05:48:54;;;;;;;11.88;5.15;;;39.20;2201.60;;;;;;6099638;23;20049;-64
2021/01/14 05:51:23;;;;;;;12.93;5.75;;;39.20;2201.60;;;;;;6098974;23;20006;-66
2021/01/14 05:54:09;;;;;;;10.52;5.00;;;39.30;2201.60;;;;;;6098943;23;20074;-64
2021/01/14 05:56:43;;;;;;;59.55;22.15;;;39.30;2201.60;;;;;;6098982;23;20002;-67
2021/01/14 05:59:11;;;;;;;37.53;18.77;;;39.20;2201.60;;;;;;6099086;23;20078;-65
2021/01/14 06:01:38;;;;;;;129.35;70.97;;;39.20;2201.60;;;;;;6099415;23;20382;-66
2021/01/14 06:04:24;;;;;;;26.92;15.80;;;39.10;2201.60;;;;;;6098857;23;20018;-66
2021/01/14 06:06:51;;;;;;;27.10;17.92;;;39.00;2201.60;;;;;;6099148;23;19998;-65
2021/01/14 06:09:21;;;;;;;11.38;5.50;;;38.90;2201.60;;;;;;6099480;23;20018;-68
2021/01/14 06:11:48;;;;;;;10.45;4.85;;;38.90;2201.60;;;;;;6098784;23;20125;-66
2021/01/14 06:14:27;;;;;;;12.02;6.13;;;38.80;2201.60;;;;;;6098736;23;20302;-66
2021/01/14 06:16:53;;;;;;;10.02;6.07;;;38.70;2201.60;;;;;;6099351;23;20006;-64
2021/01/14 06:19:19;;;;;;;11.00;6.55;;;38.60;2201.60;;;;;;6097905;23;20310;-65
2021/01/14 06:21:47;;;;;;;11.77;5.75;;;38.60;2201.60;;;;;;6099377;23;19994;-65
2021/01/14 06:24:26;;;;;;;10.47;5.47;;;38.60;2201.60;;;;;;6098488;23;20461;-64
2021/01/14 06:26:53;;;;;;;;;;;38.50;2201.60;;;;;;6099780;23;20231;-64
2021/01/14 06:29:20;;;;;;;12.32;6.70;;;38.40;2201.60;;;;;;6099030;23;19924;-65
2021/01/14 06:31:46;;;;;;;12.40;6.70;;;13.60;2201.60;;;;;;6098764;23;20005;-68
2021/01/14 06:34:15;;;;;;;22.13;9.07;;;13.30;2201.60;;;;;;6098647;23;19994;-66
2021/01/14 06:36:45;;;;;;;20.17;10.48;;;13.30;2201.60;;;;;;6098952;23;20007;-67
2021/01/14 06:39:15;;;;;;;49.70;24.05;;;13.20;2201.60;;;;;;6099107;23;20005;-67
2021/01/14 06:41:42;;;;;;;43.58;21.10;;;13.00;2201.60;;;;;;6098977;23;20002;-65
2021/01/14 06:44:10;;;;;;;36.42;23.85;;;13.20;2201.60;;;;;;6098989;23;20314;-65
2021/01/14 06:46:36;;;;;;;24.90;17.40;;;13.00;2201.60;;;;;;6098685;23;20391;-69
2021/01/14 06:49:14;;;;;;;252.32;98.45;;;12.90;2201.60;;;;;;6098625;23;19995;-65
2021/01/14 06:51:49;;;;;;;52.53;24.27;;;0.10;2201.60;;;;;;6098655;23;20025;-65
2021/01/14 06:54:17;;;;;;;27.80;15.18;;;13.10;2201.60;;;;;;6098970;23;19994;-67
2021/01/14 06:56:47;;;;;;;34.25;20.05;;;13.50;2201.60;;;;;;6098814;23;20006;-67
2021/01/14 06:59:16;;;;;;;29.33;18.60;;;38.40;2201.60;;;;;;6098917;23;19991;-65
2021/01/14 07:01:51;;;;;;;;;;;38.40;2201.60;;;;;;6099214;23;20002;-65
2021/01/14 07:05:00;;;;;;;27.27;15.90;;;38.50;2201.60;;;;;;6098476;23;19933;-66
2021/01/14 07:07:26;;;;;;;41.25;25.90;;;13.70;2201.60;;;;;;5955726;24;20080;-64
2021/01/14 07:10:05;;;;;;;34.30;21.50;;;13.60;2201.60;;;;;;5953984;24;20426;-64
2021/01/14 07:12:44;;;;;;;34.65;19.98;;;13.40;2201.60;;;;;;5956390;24;20036;-64
2021/01/14 07:15:15;;;;;;;60.15;26.88;;;13.70;2201.60;;;;;;5956184;24;20001;-67
2021/01/14 07:17:43;;;;;;;91.22;43.33;;;38.70;2201.60;;;;;;5956372;24;20008;-64
2021/01/14 07:20:11;;;;;;;159.32;78.57;;;38.70;2201.60;;;;;;5956066;24;20035;-65
2021/01/14 07:22:52;;;;;;;73.63;34.58;;;38.70;2201.60;;;;;;5955780;24;20087;-65
2021/01/14 07:25:19;;;;;;;65.68;29.40;;;38.80;2201.60;;;;;;5955783;24;20024;-65
2021/01/14 07:27:47;;;;;;;40.60;18.65;;;38.50;2201.60;;;;;;5956029;24;20413;-65
2021/01/14 07:30:17;;;;;;;63.17;27.70;;;38.50;2201.60;;;;;;5955936;24;20003;-66
2021/01/14 07:32:58;;;;;;;76.63;38.28;;;38.50;2201.60;;;;;;5955693;24;20439;-65
2021/01/14 07:35:34;;;;;;;68.63;32.20;;;38.50;2201.60;;;;;;5955939;24;20000;-65
2021/01/14 07:38:00;;;;;;;78.32;29.85;;;13.70;2201.60;;;;;;5955701;24;20051;-65
2021/01/14 07:40:33;;;;;;;34.42;17.70;;;13.70;2201.60;;;;;;5956203;24;20001;-64
2021/01/14 07:43:02;;;;;;;31.50;16.88;;;38.60;2201.60;;;;;;5969388;23;20088;-65
2021/01/14 07:45:28;;;;;;;42.92;19.23;;;38.50;2201.60;;;;;;6100707;23;20046;-65
2021/01/14 07:47:56;;;;;;;36.22;20.10;;;38.40;2201.60;;;;;;6100048;23;20322;-65
2021/01/14 07:50:26;;;;;;;54.92;28.92;;;13.60;2201.60;;;;;;6099988;23;20422;-66
2021/01/14 07:52:53;;;;;;;44.58;24.90;;;13.50;2201.60;;;;;;6100711;23;19998;-64
2021/01/14 07:55:34;;;;;;;42.58;22.92;;;13.40;2201.60;;;;;;6099842;23;20421;-65
2021/01/14 07:58:12;;;;;;;41.25;22.88;;;13.10;2201.60;;;;;;6099062;23;20012;-64
2021/01/14 08:00:39;;;;;;;36.63;18.38;;;13.00;2176.00;;;;;;6100465;23;20041;-65
2021/01/14 08:03:15;;;;;;;34.88;17.83;;;12.90;2201.60;;;;;;6100234;23;19994;-65
2021/01/14 08:05:58;;;;;;;28.80;14.57;;;13.00;2150.40;;;;;;6100206;23;20005;-66
2021/01/14 08:08:36;;;;;;;36.30;15.27;;;13.00;2176.00;;;;;;6100491;23;19998;-67
2021/01/14 08:11:19;;;;;;;46.17;21.42;;;12.90;2150.40;;;;;;6100149;23;20001;-67
2021/01/14 08:14:10;;;;;;;52.50;23.10;;;0.10;2150.40;;;;;;6099543;23;19995;-65
2021/01/14 08:17:02;;;;;;;37.92;18.58;;;13.10;2150.40;;;;;;6097807;23;20005;-66
2021/01/14 08:19:38;;;;;;;260.02;94.75;;;13.30;2176.00;;;;;;6098128;23;20398;-67
2021/01/14 08:22:12;;;;;;;45.88;23.55;;;13.10;2150.40;;;;;;6099316;23;20056;-65
2021/01/14 08:24:51;;;;;;;43.67;18.23;;;0.20;2124.80;;;;;;6098583;23;20014;-67
2021/01/14 08:27:35;;;;;;;;;;;0.20;2099.20;;;;;;6100161;23;20402;-65
2021/01/14 08:30:03;;;;;;;35.22;11.65;;;0.00;2124.80;;;;;;6099637;23;19905;-65
2021/01/14 08:32:48;;;;;;;27.15;10.95;;;0.10;2150.40;;;;;;6099978;23;19994;-66
2021/01/14 08:35:26;;;;;;;14.82;7.57;;;0.00;2176.00;;;;;;6100191;23;19990;-66
2021/01/14 08:37:54;;;;;;;23.98;10.82;;;0.00;2201.60;;;;;;6099879;23;20006;-65
2021/01/14 08:40:23;;;;;;;20.90;10.55;;;0.20;2201.60;;;;;;6100178;23;19995;-65
2021/01/14 08:43:09;;;;;;;14.32;8.32;;;0.70;2201.60;;;;;;6099847;23;19991;-65
2021/01/14 08:45:50;;;;;;;21.25;9.30;;;25.70;2176.00;;;;;;6099514;23;19994;-65
2021/01/14 08:48:28;;;;;;;22.23;11.82;;;26.30;2124.80;;;;;;6100139;23;20073;-65
2021/01/14 08:50:54;;;;;;;21.92;11.27;;;26.50;2073.60;;;;;;6100159;23;20413;-65
2021/01/14 08:53:19;;;;;;;25.52;11.07;;;51.30;2099.20;;;;;;6098586;23;20022;-65
2021/01/14 08:55:52;;;;;;;30.23;13.10;;;51.40;2099.20;;;;;;6099692;23;19994;-66
2021/01/14 08:58:19;;;;;;;44.97;19.50;;;51.60;2073.60;;;;;;6099072;23;20013;-65
2021/01/14 09:00:49;;;;;;;23.02;12.90;;;51.60;2048.00;;;;;;6099907;23;20476;-67
2021/01/14 09:03:15;;;;;;;44.47;24.58;;;51.90;2022.40;;;;;;6099919;23;19994;-65
2021/01/14 09:05:45;;;;;;;45.50;22.05;;;52.00;2022.40;;;;;;6099253;23;20417;-66
2021/01/14 09:08:12;;;;;;;41.80;19.77;;;76.80;1971.20;;;;;;6099921;23;20006;-64
2021/01/14 09:10:48;;;;;;;31.15;16.92;;;76.80;1971.20;;;;;;6099851;23;20002;-65
2021/01/14 09:13:25;;;;;;;37.03;22.88;;;52.10;1996.80;;;;;;6098795;23;20001;-66
2021/01/14 09:15:54;;;;;;;49.90;29.00;;;76.90;1971.20;;;;;;6098931;23;20085;-66
2021/01/14 09:18:31;;;;;;;49.08;34.97;;;77.10;1971.20;;;;;;6099040;23;20302;-65
2021/01/14 09:20:57;;;;;;;26.20;13.93;;;77.10;1971.20;;;;;;6098520;23;20283;-65
2021/01/14 09:23:27;;;;;;;20.45;10.60;;;52.10;2022.40;;;;;;6099116;23;19998;-64
2021/01/14 09:25:55;;;;;;;20.63;11.45;;;76.90;2022.40;;;;;;6097896;23;20015;-63
2021/01/14 09:28:26;;;;;;;166.05;66.95;;;77.30;1971.20;;;;;;6098814;23;19998;-63
2021/01/14 09:31:06;;;;;;;228.50;88.82;;;77.50;1945.60;;;;;;6098966;23;20002;-63
2021/01/14 09:33:37;;;;;;;121.90;57.53;;;77.60;1894.40;;;;;;6092034;23;19998;-64
2021/01/14 09:36:11;;;;;;;82.13;43.60;;;77.60;1945.60;;;;;;6095687;23;20442;-63
2021/01/14 09:38:51;;;;;;;22.55;13.23;;;77.50;1920.00;;;;;;6097998;23;20314;-64
2021/01/14 09:41:23;;;;;;;20.85;10.48;;;77.50;1868.80;;;;;;6096108;23;19990;-64
2021/01/14 09:43:51;;;;;;;27.27;14.85;;;77.00;1920.00;;;;;;6098044;23;20017;-63
2021/01/14 09:46:20;;;;;;;39.00;19.08;;;77.20;1920.00;;;;;;6098159;23;20050;-64
2021/01/14 09:48:46;;;;;;;38.75;24.33;;;77.50;1894.40;;;;;;6098386;23;20402;-65
2021/01/14 09:51:13;;;;;;;30.23;17.60;;;77.10;1920.00;;;;;;6098594;23;20082;-64
2021/01/14 09:53:47;;;;;;;151.27;47.83;;;77.40;1868.80;;;;;;6098339;23;20335;-64
2021/01/14 09:56:20;;;;;;;41.78;19.63;;;77.10;1894.40;;;;;;6097938;23;20295;-64
2021/01/14 09:58:51;;;;;;;37.05;14.63;;;76.90;1920.00;;;;;;6098990;23;20457;-64
2021/01/14 10:01:21;;;;;;;35.47;17.40;;;52.10;1971.20;;;;;;6098049;23;20001;-63
2021/01/14 10:04:12;;;;;;;34.42;16.58;;;51.70;1996.80;;;;;;6099137;23;20002;-63
2021/01/14 10:06:43;;;;;;;28.75;16.45;;;51.40;2073.60;;;;;;6098299;23;20005;-62
2021/01/14 10:09:11;;;;;;;45.72;23.38;;;51.50;2124.80;;;;;;6099002;23;20399;-64
2021/01/14 10:11:37;;;;;;;45.75;24.77;;;51.70;2124.80;;;;;;6097440;23;20008;-64
2021/01/14 10:14:03;;;;;;;50.13;27.50;;;52.10;2099.20;;;;;;6098438;23;20034;-63
2021/01/14 10:16:29;;;;;;;41.58;24.08;;;52.00;2099.20;;;;;;6097486;23;20003;-64
2021/01/14 10:19:09;;;;;;;164.82;75.00;;;52.00;2099.20;;;;;;6098218;23;19994;-66
2021/01/14 10:21:37;;;;;;;173.00;73.75;;;77.00;2048.00;;;;;;6098813;23;20005;-64
2021/01/14 10:24:04;;;;;;;44.80;22.45;;;77.00;2048.00;;;;;;6098669;23;19998;-62
2021/01/14 10:26:30;;;;;;;40.20;19.60;;;76.80;1996.80;;;;;;6098797;23;20025;-63
2021/01/14 10:28:56;;;;;;;68.57;32.22;;;51.90;2048.00;;;;;;6098671;23;19994;-63
2021/01/14 10:31:38;;;;;;;41.92;23.42;;;51.90;2048.00;;;;;;6099351;23;20474;-64
2021/01/14 10:34:08;;;;;;;36.83;20.67;;;51.40;2150.40;;;;;;6098469;23;20054;-66
2021/01/14 10:36:45;;;;;;;37.25;23.23;;;51.90;2150.40;;;;;;6097155;23;20005;-68
2021/01/14 10:39:11;;;;;;;72.72;44.53;;;76.90;2124.80;;;;;;6098833;23;20005;-66
2021/01/14 10:41:37;;;;;;;76.05;51.45;;;77.10;2073.60;;;;;;6097417;23;20314;-64
2021/01/14 10:44:06;;;;;;;63.17;44.22;;;77.20;2073.60;;;;;;6099046;23;20372;-67
2021/01/14 10:46:32;;;;;;;36.78;23.05;;;77.10;2073.60;;;;;;6099457;23;20002;-64
2021/01/14 10:49:11;;;;;;;45.60;34.83;;;77.40;2048.00;;;;;;6100771;23;19994;-65
2021/01/14 10:51:39;;;;;;;;;;;77.30;2073.60;;;;;;6100347;23;19998;-66
2021/01/14 10:54:04;;;;;;;38.75;27.05;;;77.20;2073.60;;;;;;6100365;23;20237;-65
2021/01/14 10:56:30;;;;;;;43.70;31.33;;;77.30;2099.20;;;;;;6100174;23;20081;-64
2021/01/14 10:59:06;;;;;;;37.20;25.33;;;77.20;2099.20;;;;;;6099569;23;20078;-65
2021/01/14 11:01:32;;;;;;;35.45;26.90;;;77.10;2124.80;;;;;;6099938;23;20003;-66
2021/01/14 11:04:07;;;;;;;48.92;36.78;;;77.20;2124.80;;;;;;6099760;23;20001;-66
2021/01/14 11:06:39;;;;;;;33.42;23.73;;;77.10;2124.80;;;;;;6100422;23;20010;-65
2021/01/14 11:09:10;;;;;;;27.20;17.38;;;77.40;2099.20;;;;;;6100299;23;20061;-64
2021/01/14 11:11:36;;;;;;;22.85;14.50;;;77.40;2073.60;;;;;;6100549;23;20044;-64
2021/01/14 11:14:03;;;;;;;25.48;15.48;;;76.90;2124.80;;;;;;6100635;23;19999;-66
2021/01/14 11:16:29;;;;;;;25.15;16.02;;;77.00;2124.80;;;;;;6100298;23;20021;-66
2021/01/14 11:18:57;;;;;;;26.58;15.18;;;76.80;2150.40;;;;;;6099972;23;20398;-66
2021/01/14 11:21:31;;;;;;;30.05;17.05;;;77.20;2124.80;;;;;;6074063;23;20074;-64
2021/01/14 11:23:58;;;;;;;22.10;14.07;;;77.40;2099.20;;;;;;6099982;23;19994;-66
2021/01/14 11:26:24;;;;;;;28.92;18.55;;;77.30;2099.20;;;;;;6099974;23;20018;-66
2021/01/14 11:28:51;;;;;;;24.73;15.10;;;77.50;2099.20;;;;;;6100311;23;20007;-64
2021/01/14 11:31:19;;;;;;;28.67;15.25;;;77.60;2073.60;;;;;;6100720;23;20049;-66
2021/01/14 11:33:45;;;;;;;24.52;14.32;;;77.60;2099.20;;;;;;6099857;23;20085;-66
2021/01/14 11:36:13;;;;;;;27.40;14.80;;;77.40;2099.20;;;;;;6099766;23;20418;-67
2021/01/14 11:38:39;;;;;;;39.28;23.67;;;77.40;2124.80;;;;;;6100144;23;20495;-65
2021/01/14 11:41:04;;;;;;;26.40;15.75;;;77.00;2176.00;;;;;;6099302;23;19994;-67
2021/01/14 11:43:31;;;;;;;31.90;17.38;;;52.00;2227.20;;;;;;6099925;23;20302;-65
2021/01/14 11:45:57;;;;;;;35.53;18.42;;;51.50;2227.20;;;;;;6099898;23;19995;-66
2021/01/14 11:48:23;;;;;;;31.33;18.90;;;51.40;2227.20;;;;;;6100231;23;19994;-64
2021/01/14 11:50:49;;;;;;;22.50;13.45;;;51.40;2227.20;;;;;;6099845;23;20385;-66
2021/01/14 11:53:14;;;;;;;29.98;17.33;;;26.50;2201.60;;;;;;6099022;23;20465;-66
2021/01/14 11:55:40;;;;;;;43.60;24.85;;;26.40;2201.60;;;;;;6100099;23;20288;-67
2021/01/14 11:58:07;;;;;;;36.08;18.02;;;51.50;2227.20;;;;;;6099035;23;19994;-65
2021/01/14 12:00:33;;;;;;;30.23;17.17;;;51.50;2227.20;;;;;;6099342;23;19999;-66
2021/01/14 12:03:04;;;;;;;26.13;15.77;;;51.50;2227.20;;;;;;6099926;23;19998;-66
2021/01/14 12:05:30;;;;;;;31.83;20.55;;;51.50;2227.20;;;;;;6099331;23;20085;-66
2021/01/14 12:07:56;;;;;;;34.17;19.63;;;52.00;2227.20;;;;;;6099691;23;19998;-65
2021/01/14 12:10:21;;;;;;;26.73;15.95;;;52.10;2227.20;;;;;;6100102;23;20001;-65
2021/01/14 12:12:47;;;;;;;24.50;13.73;;;52.00;2227.20;;;;;;6099611;23;20033;-64
2021/01/14 12:15:13;;;;;;;23.45;13.73;;;52.10;2227.20;;;;;;6099392;23;20002;-65
2021/01/14 12:17:39;;;;;;;53.70;35.13;;;77.00;2227.20;;;;;;6099746;23;20021;-66
2021/01/14 12:20:05;;;;;;;28.27;18.60;;;77.30;2227.20;;;;;;6098871;23;20003;-65
2021/01/14 12:22:34;;;;;;;29.35;18.00;;;77.20;2227.20;;;;;;6099453;23;19998;-66
2021/01/14 12:24:59;;;;;;;30.17;18.02;;;77.30;2227.20;;;;;;6097842;23;20093;-67
2021/01/14 12:27:25;;;;;;;26.33;15.30;;;77.60;2227.20;;;;;;6099420;23;20005;-66